Time;durP1;ratioP1;P1;durP2;ratioP2;P2;SDS_P1;SDS_P2;PMS_P1;PMS_P2;Temp;Humidity;BMP_temperature;BMP_pressure;BME280_temperature;BME280_humidity;BME280_pressure;Samples;Min_cycle;Max_cycle;Signal;HPM_P1;HPM_P2
2023/02/03 07:02:56;;;;;;;23.90;3.50;;;15.60;69.30;;;;;;4771665;30;20091;-75
2023/02/03 07:05:22;;;;;;;38.67;4.85;;;15.60;68.90;;;;;;4773588;30;20070;-75
2023/02/03 07:07:49;;;;;;;18.70;4.57;;;15.70;68.60;;;;;;4773746;30;20056;-72
2023/02/03 07:10:15;;;;;;;25.20;4.03;;;15.70;67.90;;;;;;4773080;30;20121;-73
2023/02/03 07:12:41;;;;;;;16.63;3.60;;;15.70;67.00;;;;;;4768696;30;20047;-73
2023/02/03 07:15:08;;;;;;;27.88;4.25;;;15.70;66.10;;;;;;4772481;30;20078;-75
2023/02/03 07:17:33;;;;;;;11.32;2.38;;;15.70;65.90;;;;;;4773586;30;20060;-73
2023/02/03 07:19:59;;;;;;;16.67;3.78;;;15.70;65.60;;;;;;4786805;30;20489;-75
2023/02/03 07:22:25;;;;;;;21.63;3.20;;;15.80;65.50;;;;;;4772678;30;20028;-75
2023/02/03 07:24:51;;;;;;;18.10;3.30;;;15.90;65.70;;;;;;4786473;30;20104;-76
2023/02/03 07:27:16;;;;;;;12.02;2.90;;;15.90;65.70;;;;;;4772793;30;20135;-78
2023/02/03 07:29:42;;;;;;;19.92;3.28;;;16.00;65.90;;;;;;4772993;30;20056;-76
2023/02/03 07:32:08;;;;;;;18.10;2.92;;;16.00;66.00;;;;;;4773745;30;20387;-78
2023/02/03 07:34:33;;;;;;;16.52;3.60;;;16.00;66.20;;;;;;4772166;30;20063;-76
2023/02/03 07:36:59;;;;;;;14.63;3.35;;;16.10;66.20;;;;;;4772241;30;20052;-79
2023/02/03 07:39:25;;;;;;;10.68;2.55;;;16.10;66.00;;;;;;4771552;30;20055;-75
2023/02/03 07:41:51;;;;;;;16.58;3.55;;;16.10;66.00;;;;;;4785654;30;20464;-75
2023/02/03 07:44:16;;;;;;;18.52;3.83;;;16.10;65.90;;;;;;4771863;30;20051;-75
2023/02/03 07:46:43;;;;;;;13.82;3.53;;;16.10;65.70;;;;;;4772482;30;20135;-74
2023/02/03 07:49:10;;;;;;;18.00;3.33;;;16.10;64.80;;;;;;4772593;30;20058;-78
2023/02/03 07:51:36;;;;;;;17.35;3.28;;;16.00;64.40;;;;;;4770390;30;20097;-73
2023/02/03 07:54:02;;;;;;;11.32;3.00;;;16.00;64.00;;;;;;4768168;30;20079;-75
2023/02/03 07:56:29;;;;;;;28.17;4.63;;;16.00;63.50;;;;;;4771649;30;20379;-74
2023/02/03 07:58:55;;;;;;;14.35;3.40;;;16.00;63.40;;;;;;4771696;30;20392;-77
2023/02/03 08:01:21;;;;;;;11.23;3.00;;;15.90;63.60;;;;;;4777883;30;20055;-71
2023/02/03 08:03:46;;;;;;;17.65;3.90;;;16.00;63.20;;;;;;4790375;30;20063;-73
2023/02/03 08:06:17;;;;;;;15.40;3.83;;;15.90;62.90;;;;;;4789884;30;20059;-76
2023/02/03 08:08:43;;;;;;;18.17;3.42;;;16.00;62.70;;;;;;4788977;30;20068;-75
2023/02/03 08:11:09;;;;;;;21.15;4.20;;;16.00;62.50;;;;;;4789533;30;20062;-78
2023/02/03 08:13:35;;;;;;;24.63;5.03;;;16.10;62.60;;;;;;4789257;30;20058;-75
2023/02/03 08:16:01;;;;;;;16.77;3.75;;;16.10;62.60;;;;;;4789085;30;20055;-78
2023/02/03 08:18:26;;;;;;;16.80;3.60;;;16.20;62.80;;;;;;4789606;30;20047;-76
2023/02/03 08:20:52;;;;;;;16.75;3.65;;;16.20;63.10;;;;;;4803625;29;20050;-76
2023/02/03 08:23:18;;;;;;;19.08;3.35;;;16.20;63.30;;;;;;4801418;29;20348;-77
2023/02/03 08:25:50;;;;;;;18.88;4.38;;;16.20;63.60;;;;;;4792433;29;20130;-77
2023/02/03 08:28:37;;;;;;;14.93;3.83;;;16.20;63.80;;;;;;4785061;29;20530;-81
2023/02/03 08:31:11;;;;;;;19.55;4.07;;;16.10;64.40;;;;;;4765113;30;20054;-79
2023/02/03 08:33:37;;;;;;;14.80;3.30;;;16.10;64.80;;;;;;4799039;29;20035;-80
2023/02/03 08:36:04;;;;;;;17.13;3.55;;;16.00;65.40;;;;;;4803746;29;20044;-76
2023/02/03 08:38:30;;;;;;;14.80;3.70;;;16.00;65.60;;;;;;4788769;30;20410;-76
2023/02/03 08:40:56;;;;;;;16.20;3.65;;;16.00;64.90;;;;;;4789383;30;20043;-79
2023/02/03 08:43:22;;;;;;;16.13;3.63;;;15.90;65.30;;;;;;4798313;29;20465;-78
2023/02/03 08:45:47;;;;;;;18.27;4.18;;;15.90;66.40;;;;;;4801605;29;20063;-79
2023/02/03 08:48:14;;;;;;;12.63;3.30;;;15.90;66.40;;;;;;4773255;30;20131;-77
2023/02/03 08:50:43;;;;;;;15.27;3.40;;;15.90;65.40;;;;;;4788851;30;20052;-76
2023/02/03 08:53:12;;;;;;;12.35;3.05;;;15.80;65.00;;;;;;4789430;30;20043;-78
2023/02/03 08:55:39;;;;;;;11.48;2.85;;;15.80;65.60;;;;;;4791146;29;20126;-79
2023/02/03 08:58:05;;;;;;;13.02;3.25;;;15.80;67.30;;;;;;4777740;30;20051;-78
2023/02/03 09:00:31;;;;;;;13.27;2.70;;;15.80;67.20;;;;;;4792199;30;20047;-80
2023/02/03 09:02:56;;;;;;;11.00;3.25;;;15.80;66.00;;;;;;4777060;30;20085;-75
2023/02/03 09:05:25;;;;;;;11.60;3.15;;;15.70;65.60;;;;;;4791785;30;20048;-79
2023/02/03 09:07:51;;;;;;;14.02;2.85;;;15.70;66.90;;;;;;4793019;30;20091;-77
2023/02/03 09:10:37;;;;;;;8.27;2.80;;;15.70;68.10;;;;;;4792923;30;20047;-80
2023/02/03 09:13:02;;;;;;;13.38;3.08;;;15.70;67.60;;;;;;4793312;30;20423;-77
2023/02/03 09:15:28;;;;;;;10.20;3.00;;;15.80;67.90;;;;;;4793075;30;20085;-77
2023/02/03 09:17:56;;;;;;;10.30;3.20;;;15.80;68.10;;;;;;4793080;30;20371;-78
2023/02/03 09:20:23;;;;;;;11.60;3.10;;;15.80;68.00;;;;;;4792345;30;20065;-75
2023/02/03 09:22:49;;;;;;;11.50;3.05;;;15.80;67.30;;;;;;4792726;30;20471;-78
2023/02/03 09:25:15;;;;;;;9.95;3.33;;;15.80;67.30;;;;;;4777451;30;20044;-77
2023/02/03 09:27:43;;;;;;;10.60;2.50;;;15.90;67.00;;;;;;4793340;30;20036;-78
2023/02/03 09:30:10;;;;;;;12.07;2.53;;;15.90;67.00;;;;;;4792038;30;20043;-77
2023/02/03 09:32:35;;;;;;;10.38;2.88;;;15.90;67.10;;;;;;4792871;30;20043;-79
2023/02/03 09:35:01;;;;;;;7.97;2.17;;;15.90;67.20;;;;;;4793182;30;20451;-78
2023/02/03 09:37:29;;;;;;;11.90;2.80;;;15.90;67.10;;;;;;4792784;30;20066;-79
2023/02/03 09:39:57;;;;;;;9.50;2.20;;;15.90;66.90;;;;;;4792783;30;20340;-75
2023/02/03 09:42:43;;;;;;;14.90;2.90;;;15.90;65.80;;;;;;4792963;30;20055;-79
2023/02/03 09:45:27;;;;;;;13.35;3.10;;;15.80;65.00;;;;;;4792093;30;20482;-75
2023/02/03 09:47:59;;;;;;;16.05;4.22;;;15.70;64.20;;;;;;4792513;30;20126;-75
2023/02/03 09:50:28;;;;;;;19.38;4.72;;;15.60;63.80;;;;;;4792816;30;20074;-75
2023/02/03 09:52:56;;;;;;;13.70;3.10;;;15.50;63.80;;;;;;4789366;29;20372;-76
2023/02/03 09:55:41;;;;;;;15.25;3.97;;;15.40;63.90;;;;;;4784667;29;20062;-74
2023/02/03 09:58:12;;;;;;;14.27;3.03;;;15.40;64.20;;;;;;4779291;30;20206;-75
2023/02/03 10:01:04;;;;;;;13.00;3.33;;;15.30;64.20;;;;;;4775022;30;20055;-75
2023/02/03 10:03:45;;;;;;;9.88;2.30;;;15.30;64.40;;;;;;4788541;30;20059;-76
2023/02/03 10:06:34;;;;;;;12.13;3.28;;;15.40;64.60;;;;;;4792529;29;20109;-78
2023/02/03 10:09:12;;;;;;;10.10;2.80;;;15.50;64.90;;;;;;4776872;30;20075;-76
2023/02/03 10:11:44;;;;;;;11.75;2.55;;;15.40;65.30;;;;;;4792484;30;20124;-75
2023/02/03 10:14:23;;;;;;;11.43;2.53;;;15.60;65.30;;;;;;4792027;30;20055;-73
2023/02/03 10:17:27;;;;;;;14.45;2.88;;;15.60;65.40;;;;;;4792564;30;20398;-75
2023/02/03 10:20:04;;;;;;;14.48;3.63;;;15.70;65.40;;;;;;4785786;30;20259;-75
2023/02/03 10:22:38;;;;;;;7.47;2.50;;;15.70;65.70;;;;;;4791726;30;20137;-75
2023/02/03 10:25:06;;;;;;;;;;;15.70;65.70;;;;;;4792463;30;20351;-77
2023/02/03 10:27:33;;;;;;;12.90;2.70;;;15.80;65.80;;;;;;4791184;30;19925;-77
2023/02/03 10:30:22;;;;;;;12.50;3.08;;;15.80;65.80;;;;;;4792148;30;20120;-77
2023/02/03 10:33:07;;;;;;;9.80;2.78;;;15.80;66.20;;;;;;4790940;30;20043;-76
2023/02/03 10:35:41;;;;;;;10.57;2.33;;;15.80;66.30;;;;;;4792523;30;20388;-77
2023/02/03 10:38:17;;;;;;;9.10;2.72;;;15.90;66.60;;;;;;4786526;30;20062;-78
2023/02/03 10:40:43;;;;;;;12.43;2.40;;;15.90;66.50;;;;;;4772389;30;20059;-77
2023/02/03 10:45:54;;;;;;;9.98;2.50;;;16.10;66.60;;;;;;4782065;30;20055;-75
2023/02/03 10:48:21;;;;;;;11.38;2.40;;;16.20;66.50;;;;;;4786034;30;20051;-78
2023/02/03 10:50:49;;;;;;;12.40;2.80;;;16.20;66.40;;;;;;4782229;29;20349;-78
2023/02/03 10:53:35;;;;;;;13.93;1.98;;;16.30;66.40;;;;;;4788521;30;20062;-76
2023/02/03 10:56:10;;;;;;;12.02;2.40;;;16.30;66.20;;;;;;4784787;30;20068;-73
2023/02/03 10:58:37;;;;;;;18.67;3.58;;;16.40;66.00;;;;;;4788142;30;20052;-77
2023/02/03 11:01:06;;;;;;;11.00;2.85;;;16.30;65.80;;;;;;4781360;30;20560;-75
2023/02/03 11:03:32;;;;;;;9.20;2.50;;;16.40;65.90;;;;;;4783355;30;20066;-78
2023/02/03 11:06:16;;;;;;;11.43;2.38;;;16.50;65.90;;;;;;4773605;30;20055;-76
2023/02/03 11:08:48;;;;;;;12.50;2.83;;;16.50;65.90;;;;;;4774574;30;20494;-78
2023/02/03 11:11:20;;;;;;;13.95;3.85;;;16.50;65.80;;;;;;4785991;30;20059;-76
2023/02/03 11:13:47;;;;;;;9.35;2.38;;;16.50;65.90;;;;;;4791095;30;20130;-77
2023/02/03 11:16:21;;;;;;;11.93;2.60;;;16.50;65.80;;;;;;4775572;30;20341;-76
2023/02/03 11:18:54;;;;;;;7.30;2.22;;;16.50;65.50;;;;;;4789934;29;20051;-77
2023/02/03 11:21:26;;;;;;;13.30;2.40;;;16.50;65.30;;;;;;4790869;30;20481;-79
2023/02/03 11:24:15;;;;;;;11.38;2.88;;;16.50;65.30;;;;;;4790213;30;20059;-76
2023/02/03 11:26:53;;;;;;;12.27;2.70;;;16.50;64.90;;;;;;4789712;30;20051;-81
2023/02/03 11:29:30;;;;;;;8.32;2.72;;;16.40;65.30;;;;;;4797469;29;20363;-81
2023/02/03 11:32:23;;;;;;;12.15;3.15;;;16.40;65.60;;;;;;4797112;29;20035;-77
2023/02/03 11:35:02;;;;;;;14.32;3.30;;;16.40;65.10;;;;;;4784094;29;20039;-82
2023/02/03 11:37:33;;;;;;;15.32;4.18;;;16.40;64.00;;;;;;4758241;30;20134;-80
2023/02/03 11:40:11;;;;;;;15.95;4.65;;;16.40;63.40;;;;;;4771899;30;20549;-79
2023/02/03 11:42:41;;;;;;;15.98;4.10;;;16.30;63.30;;;;;;4782170;30;20054;-78
2023/02/03 11:45:13;;;;;;;16.00;4.75;;;16.40;63.60;;;;;;4788602;30;20059;-80
2023/02/03 11:47:59;;;;;;;15.93;4.10;;;16.40;63.60;;;;;;4778828;30;20048;-79
2023/02/03 11:50:50;;;;;;;17.95;4.07;;;16.40;63.70;;;;;;4772629;30;20058;-84
2023/02/03 11:53:26;;;;;;;13.27;3.95;;;16.50;64.20;;;;;;4780233;30;20116;-80
2023/02/03 11:56:05;;;;;;;14.10;3.53;;;16.50;63.90;;;;;;4760713;30;20073;-81
2023/02/03 11:58:43;;;;;;;15.73;4.20;;;16.40;64.40;;;;;;4789192;30;20051;-80
2023/02/03 12:01:13;;;;;;;18.67;4.28;;;16.40;64.50;;;;;;4786477;29;20110;-82
2023/02/03 12:04:00;;;;;;;17.92;4.05;;;16.40;64.70;;;;;;4771691;30;20420;-81
2023/02/03 12:06:38;;;;;;;15.35;3.72;;;16.40;65.40;;;;;;4787288;30;20063;-78
2023/02/03 12:09:25;;;;;;;10.23;3.97;;;16.40;64.80;;;;;;4771048;30;20125;-81
2023/02/03 12:12:11;;;;;;;13.27;3.97;;;16.40;64.90;;;;;;4768311;30;20039;-83
2023/02/03 12:14:42;;;;;;;17.60;3.97;;;16.40;65.00;;;;;;4761220;30;20063;-80
2023/02/03 12:17:33;;;;;;;11.93;3.83;;;16.40;65.10;;;;;;4772207;30;20130;-79
2023/02/03 12:20:17;;;;;;;14.85;4.47;;;16.30;63.90;;;;;;4781928;30;20139;-76
2023/02/03 12:22:55;;;;;;;16.00;3.83;;;16.20;64.50;;;;;;4767932;30;20052;-78
2023/02/03 12:25:46;;;;;;;16.75;4.90;;;16.20;64.60;;;;;;4754410;30;20048;-80
2023/02/03 12:29:00;;;;;;;17.40;5.18;;;16.20;64.50;;;;;;4760107;30;20059;-72
2023/02/03 12:31:34;;;;;;;17.43;4.87;;;16.20;65.50;;;;;;4771305;30;20124;-77
2023/02/03 12:34:33;;;;;;;16.23;4.93;;;16.20;65.90;;;;;;4753663;30;20059;-80
2023/02/03 12:37:09;;;;;;;13.57;3.60;;;16.20;65.10;;;;;;4753988;30;20060;-79
2023/02/03 12:39:59;;;;;;;17.38;4.35;;;16.20;65.10;;;;;;4767824;30;20139;-80
2023/02/03 12:42:46;;;;;;;16.60;3.92;;;16.20;65.30;;;;;;5131561;27;20380;-79
2023/02/03 12:45:24;;;;;;;15.38;4.05;;;16.10;65.20;;;;;;5077607;28;20052;-80
2023/02/03 12:48:12;;;;;;;18.52;4.18;;;16.10;65.20;;;;;;5112421;28;20048;-78
2023/02/03 12:50:55;;;;;;;17.73;3.83;;;16.00;65.00;;;;;;5112399;28;20131;-80
2023/02/03 12:53:31;;;;;;;14.07;3.85;;;16.00;65.20;;;;;;5094540;28;20047;-79
2023/02/03 12:56:06;;;;;;;13.65;3.30;;;16.00;65.40;;;;;;5094715;28;20366;-80
2023/02/03 12:59:12;;;;;;;12.35;4.18;;;16.00;65.40;;;;;;5112594;28;20450;-81
2023/02/03 13:01:51;;;;;;;16.08;4.50;;;15.90;65.30;;;;;;5075089;28;20060;-76
2023/02/03 13:04:41;;;;;;;15.32;4.47;;;15.90;65.50;;;;;;5112065;28;20362;-78
2023/02/03 13:07:29;;;;;;;17.00;4.22;;;15.90;65.90;;;;;;5111543;28;20059;-77
2023/02/03 13:10:42;;;;;;;14.02;4.13;;;15.80;65.70;;;;;;5112068;28;20051;-79
2023/02/03 13:13:13;;;;;;;12.90;3.80;;;15.80;65.60;;;;;;5091130;28;20473;-77
2023/02/03 13:15:48;;;;;;;17.23;3.92;;;15.80;66.00;;;;;;5104183;28;20115;-78
2023/02/03 13:18:36;;;;;;;16.27;4.28;;;15.80;66.10;;;;;;5086702;28;20071;-77
2023/02/03 13:21:02;;;;;;;17.50;4.05;;;15.80;65.80;;;;;;5105981;28;20119;-83
2023/02/03 13:23:28;;;;;;;12.00;3.92;;;15.70;66.00;;;;;;5086987;28;20140;-77
2023/02/03 13:26:10;;;;;;;15.77;4.55;;;15.70;66.00;;;;;;5073760;28;20059;-77
2023/02/03 13:29:04;;;;;;;13.70;4.25;;;15.70;65.90;;;;;;5089266;28;20124;-78
2023/02/03 13:31:55;;;;;;;14.95;5.25;;;15.70;65.80;;;;;;5105260;28;20048;-79
2023/02/03 13:34:27;;;;;;;13.27;3.97;;;15.60;66.00;;;;;;5105152;28;20051;-78
2023/02/03 13:37:11;;;;;;;16.63;3.53;;;15.60;66.00;;;;;;5106425;28;20144;-78
2023/02/03 13:39:54;;;;;;;15.60;4.38;;;15.60;66.10;;;;;;5104860;28;20055;-79
2023/02/03 13:42:32;;;;;;;14.45;3.83;;;15.60;66.00;;;;;;5104547;28;20079;-79
2023/02/03 13:45:23;;;;;;;14.75;3.83;;;15.60;65.90;;;;;;5086562;28;20040;-77
2023/02/03 13:47:52;;;;;;;17.27;4.55;;;15.60;66.00;;;;;;5089705;28;20039;-76
2023/02/03 13:50:28;;;;;;;13.98;3.72;;;15.60;65.80;;;;;;5110012;28;20048;-76
2023/02/03 13:52:54;;;;;;;20.35;4.97;;;15.60;65.80;;;;;;5098341;28;20040;-77
2023/02/03 13:55:30;;;;;;;24.17;5.00;;;15.60;66.40;;;;;;5093599;28;20429;-76
2023/02/03 13:57:56;;;;;;;14.30;4.07;;;15.50;66.30;;;;;;5090184;28;20360;-77
2023/02/03 14:00:51;;;;;;;15.77;4.03;;;15.60;66.60;;;;;;5094394;28;20519;-78
2023/02/03 14:03:23;;;;;;;18.40;3.88;;;15.70;67.30;;;;;;5072851;28;20052;-80
2023/02/03 14:05:53;;;;;;;24.40;4.30;;;15.80;67.70;;;;;;5092427;28;20040;-78
2023/02/03 14:08:38;;;;;;;24.58;4.95;;;15.80;67.80;;;;;;5074877;28;20474;-77
2023/02/03 14:11:32;;;;;;;22.10;3.58;;;16.00;67.10;;;;;;5060366;28;20459;-75
2023/02/03 14:14:07;;;;;;;14.27;4.05;;;16.00;66.80;;;;;;5096783;28;20086;-76
2023/02/03 14:16:43;;;;;;;20.10;3.58;;;16.00;66.60;;;;;;5079691;28;20044;-76
2023/02/03 14:19:32;;;;;;;13.60;3.95;;;16.10;66.50;;;;;;5092315;28;20473;-76
2023/02/03 14:22:15;;;;;;;11.35;3.83;;;16.00;66.50;;;;;;5059015;28;20074;-76
2023/02/03 14:24:45;;;;;;;14.82;4.30;;;16.10;66.50;;;;;;5097175;28;20351;-76
2023/02/03 14:27:21;;;;;;;11.13;4.13;;;15.80;64.10;;;;;;5089397;28;20075;-78
2023/02/03 14:30:03;;;;;;;12.75;3.75;;;15.80;66.70;;;;;;5095926;28;20101;-77
2023/02/03 14:32:55;;;;;;;18.10;4.60;;;15.70;67.50;;;;;;5085883;28;20059;-76
2023/02/03 14:35:37;;;;;;;16.15;3.90;;;15.80;67.50;;;;;;5077269;28;20041;-75
2023/02/03 14:38:07;;;;;;;16.02;3.28;;;15.80;67.50;;;;;;5096892;28;20055;-79
2023/02/03 14:40:51;;;;;;;17.52;4.22;;;15.80;67.50;;;;;;5096880;28;20139;-76
2023/02/03 14:43:25;;;;;;;15.00;4.65;;;15.90;67.60;;;;;;5097033;28;20507;-77
2023/02/03 14:46:18;;;;;;;12.05;3.88;;;16.00;67.60;;;;;;5079160;28;20370;-76
2023/02/03 14:48:56;;;;;;;22.23;3.72;;;16.10;67.70;;;;;;5097320;28;20059;-77
2023/02/03 14:51:41;;;;;;;13.95;3.65;;;16.20;67.50;;;;;;5097042;28;20040;-75
2023/02/03 14:54:16;;;;;;;13.38;3.33;;;16.30;67.40;;;;;;5076446;28;20127;-78
2023/02/03 14:57:19;;;;;;;15.18;4.00;;;16.40;67.20;;;;;;5068830;28;20040;-80
2023/02/03 15:00:04;;;;;;;16.33;3.65;;;16.40;66.50;;;;;;5096737;28;20054;-79
2023/02/03 15:02:32;;;;;;;17.27;4.00;;;16.40;65.30;;;;;;5095967;28;20048;-78
2023/02/03 15:05:13;;;;;;;16.10;4.00;;;16.40;64.30;;;;;;5095289;28;20051;-77
2023/02/03 15:07:48;;;;;;;14.18;3.97;;;16.40;63.70;;;;;;5078136;28;20404;-78
2023/02/03 15:10:18;;;;;;;14.98;4.03;;;16.50;64.10;;;;;;5096308;28;20052;-78
2023/02/03 15:12:47;;;;;;;10.98;3.95;;;16.50;64.40;;;;;;5096233;28;20044;-80
2023/02/03 15:15:20;;;;;;;14.07;3.50;;;16.60;64.70;;;;;;5096218;28;20073;-79
2023/02/03 15:17:46;;;;;;;15.93;3.90;;;16.60;64.90;;;;;;5094775;28;20493;-75
2023/02/03 15:20:40;;;;;;;14.60;3.88;;;16.60;65.20;;;;;;5060482;28;20056;-73
2023/02/03 15:23:24;;;;;;;16.75;4.65;;;16.60;65.40;;;;;;5116857;28;20105;-73
2023/02/03 15:26:01;;;;;;;13.80;4.00;;;16.60;65.20;;;;;;5116882;28;20058;-78
2023/02/03 15:28:28;;;;;;;22.10;5.03;;;16.60;64.80;;;;;;5112385;28;20055;-75
2023/02/03 15:31:11;;;;;;;19.88;4.35;;;16.60;64.70;;;;;;5103570;28;20074;-75
2023/02/03 15:33:38;;;;;;;18.00;3.92;;;16.50;64.70;;;;;;5094758;28;20106;-75
2023/02/03 15:36:25;;;;;;;20.50;5.47;;;16.50;65.10;;;;;;5069547;28;20054;-76
2023/02/03 15:39:05;;;;;;;19.90;4.43;;;16.50;65.30;;;;;;5095369;28;20094;-76
2023/02/03 15:41:31;;;;;;;17.35;4.57;;;16.40;65.60;;;;;;5094728;28;20193;-74
2023/02/03 15:44:08;;;;;;;18.17;4.45;;;16.40;65.70;;;;;;5077593;28;20044;-78
2023/02/03 15:46:45;;;;;;;21.60;5.78;;;16.40;65.90;;;;;;5095162;28;20044;-77
2023/02/03 15:49:11;;;;;;;16.05;4.25;;;16.40;65.90;;;;;;5060267;28;20489;-76
2023/02/03 15:51:43;;;;;;;20.45;4.05;;;16.40;65.90;;;;;;5095029;28;20119;-75
2023/02/03 15:54:23;;;;;;;16.38;3.58;;;16.40;66.10;;;;;;5095103;28;20134;-76
2023/02/03 15:57:06;;;;;;;20.65;5.13;;;16.40;66.40;;;;;;5095138;28;20027;-75
2023/02/03 15:59:41;;;;;;;19.50;4.43;;;16.40;66.40;;;;;;5088586;28;20086;-76
2023/02/03 16:02:28;;;;;;;22.95;4.93;;;16.40;66.50;;;;;;5094684;28;20462;-76
2023/02/03 16:04:55;;;;;;;17.23;4.03;;;16.40;66.60;;;;;;5095012;28;20062;-76
2023/02/03 16:07:27;;;;;;;19.98;3.92;;;16.40;66.40;;;;;;5094653;28;20066;-77
2023/02/03 16:09:56;;;;;;;16.88;4.35;;;16.40;66.10;;;;;;5094654;28;20076;-75
2023/02/03 16:12:29;;;;;;;14.88;4.25;;;16.20;65.50;;;;;;5094347;28;20070;-76
2023/02/03 16:14:56;;;;;;;15.53;4.17;;;16.00;65.40;;;;;;5077548;28;20059;-76
2023/02/03 16:17:34;;;;;;;18.98;4.05;;;15.80;66.20;;;;;;5076437;28;20052;-77
2023/02/03 16:20:12;;;;;;;25.17;5.22;;;15.80;66.00;;;;;;5094968;28;20093;-75
2023/02/03 16:23:06;;;;;;;35.38;7.13;;;15.70;65.70;;;;;;5094946;28;20146;-75
2023/02/03 16:25:33;;;;;;;26.27;6.75;;;15.70;62.60;;;;;;5076487;28;20054;-75
2023/02/03 16:50:52;;;;;;;29.27;6.22;;;15.00;62.50;;;;;;5094382;28;20052;-73
2023/02/03 16:53:20;;;;;;;23.80;6.35;;;15.00;62.60;;;;;;5094185;28;20135;-73
2023/02/03 16:55:47;;;;;;;29.92;6.82;;;15.00;62.80;;;;;;5094272;28;20036;-72
2023/02/03 16:58:13;;;;;;;21.85;5.95;;;14.90;63.00;;;;;;5094421;28;20112;-73
2023/02/03 17:00:41;;;;;;;24.05;5.55;;;14.90;63.10;;;;;;5075410;28;20052;-74
2023/02/03 17:03:09;;;;;;;32.03;6.03;;;15.00;63.40;;;;;;5094179;28;20054;-72
2023/02/03 17:05:36;;;;;;;26.58;6.68;;;15.00;63.80;;;;;;5093971;28;20047;-72
2023/02/03 17:08:03;;;;;;;30.55;6.63;;;15.00;63.10;;;;;;5094414;28;20048;-72
2023/02/03 17:10:36;;;;;;;24.88;5.78;;;15.00;62.10;;;;;;5094366;28;20059;-71
2023/02/03 17:13:02;;;;;;;32.42;7.57;;;15.00;61.50;;;;;;5069118;28;20347;-73
2023/02/03 17:15:27;;;;;;;33.60;7.20;;;14.90;62.00;;;;;;5074278;28;20062;-76
2023/02/03 17:17:53;;;;;;;28.52;6.95;;;14.90;62.30;;;;;;5072232;28;20051;-74
2023/02/03 17:20:19;;;;;;;28.20;7.22;;;14.90;62.60;;;;;;5076446;28;20050;-74
2023/02/03 17:22:45;;;;;;;32.80;7.88;;;14.90;63.00;;;;;;5088400;28;20041;-75
2023/02/03 17:25:11;;;;;;;28.05;6.78;;;14.90;63.30;;;;;;5071063;28;20048;-75
2023/02/03 17:27:36;;;;;;;27.67;6.70;;;14.90;63.70;;;;;;5091782;28;20040;-76
2023/02/03 17:30:03;;;;;;;26.70;6.32;;;14.90;63.90;;;;;;5094089;28;20086;-76
2023/02/03 17:32:29;;;;;;;27.20;7.05;;;14.80;64.10;;;;;;5096764;28;20055;-75
2023/02/03 17:34:55;;;;;;;24.30;6.45;;;14.80;64.30;;;;;;5097837;28;20447;-74
2023/02/03 17:37:20;;;;;;;24.83;5.40;;;14.80;64.60;;;;;;5098303;28;20072;-73
2023/02/03 17:39:46;;;;;;;25.90;6.38;;;14.80;65.30;;;;;;5097616;28;20446;-78
2023/02/03 17:42:12;;;;;;;25.75;6.68;;;14.80;65.30;;;;;;5097049;28;20051;-78
2023/02/03 17:44:37;;;;;;;26.92;5.85;;;14.80;65.40;;;;;;5097922;28;20119;-79
2023/02/03 17:47:03;;;;;;;25.85;6.38;;;14.80;65.50;;;;;;5097318;28;20115;-78
2023/02/03 17:49:29;;;;;;;23.35;6.28;;;14.90;66.30;;;;;;5097899;28;20044;-79
2023/02/03 17:51:55;;;;;;;30.20;7.38;;;14.90;68.00;;;;;;5097508;28;20046;-76
2023/02/03 17:54:24;;;;;;;29.17;6.10;;;15.00;69.40;;;;;;5097758;28;20028;-79
2023/02/03 17:56:50;;;;;;;28.27;7.20;;;15.00;69.80;;;;;;5097625;28;20494;-80
2023/02/03 17:59:16;;;;;;;27.40;5.70;;;15.10;69.90;;;;;;5054762;28;20048;-78
